Time;durP1;ratioP1;P1;durP2;ratioP2;P2;SDS_P1;SDS_P2;PMS_P1;PMS_P2;Temp;Humidity;BMP_temperature;BMP_pressure;BME280_temperature;BME280_humidity;BME280_pressure;Samples;Min_cycle;Max_cycle;Signal;HPM_P1;HPM_P2
2022/01/06 00:02:15;;;;;;;;;7.75;7.75;;;;;22.02;38.29;101874.03;5050731;28;45481;-71
2022/01/06 00:04:41;;;;;;;;;8.50;8.50;;;;;22.02;38.25;101878.50;5038147;28;45399;-72
2022/01/06 00:07:07;;;;;;;;;8.00;8.00;;;;;22.03;38.40;101872.22;5054422;28;45647;-72
2022/01/06 00:09:32;;;;;;;;;12.50;8.50;;;;;22.01;38.54;101864.44;5051437;28;45479;-71
2022/01/06 00:11:58;;;;;;;;;9.25;7.00;;;;;22.01;38.49;101866.25;5050508;28;45527;-71
2022/01/06 00:14:39;;;;;;;;;8.50;7.00;;;;;22.01;38.19;101871.56;5050468;28;45505;-71
2022/01/06 00:17:22;;;;;;;;;9.50;7.50;;;;;22.00;38.78;101868.06;5050047;28;45447;-71
2022/01/06 00:25:15;;;;;;;;;10.75;8.00;;;;;21.99;38.40;101871.69;5056153;28;45837;-71
2022/01/06 00:27:41;;;;;;;;;7.00;7.00;;;;;21.99;38.17;101865.59;5041480;28;45309;-71
2022/01/06 00:30:07;;;;;;;;;6.75;6.75;;;;;21.97;38.18;101863.06;5034679;28;45403;-71
2022/01/06 00:32:32;;;;;;;;;10.00;9.00;;;;;21.97;38.26;101868.38;5052784;28;45499;-71
2022/01/06 00:34:58;;;;;;;;;7.50;7.50;;;;;21.97;38.51;101868.38;5049672;28;45458;-71
2022/01/06 00:37:23;;;;;;;;;11.00;8.25;;;;;21.97;38.41;101876.31;5054155;28;45399;-71
2022/01/06 00:39:48;;;;;;;;;8.00;8.00;;;;;21.95;38.11;101881.78;5052511;28;45506;-71
2022/01/06 00:42:16;;;;;;;;;6.00;6.00;;;;;21.97;38.47;101889.56;5039185;28;46486;-71
2022/01/06 00:44:41;;;;;;;;;12.50;8.00;;;;;21.96;38.47;101886.09;5043491;28;46370;-71
2022/01/06 00:47:06;;;;;;;;;12.50;8.50;;;;;21.96;38.05;101877.31;5053344;28;45398;-71
2022/01/06 00:49:32;;;;;;;;;11.50;11.00;;;;;21.96;37.92;101875.47;5038581;28;45549;-71
2022/01/06 00:51:57;;;;;;;;;10.00;9.00;;;;;21.96;37.89;101874.69;5038427;28;45525;-71
2022/01/06 00:54:22;;;;;;;;;8.00;8.00;;;;;21.96;38.25;101874.69;5041612;28;46259;-71
2022/01/06 00:56:48;;;;;;;;;8.00;8.00;;;;;21.95;38.05;101876.50;5046290;28;45327;-71
2022/01/06 00:59:13;;;;;;;;;8.75;8.75;;;;;21.86;37.78;101866.78;5042092;28;45260;-71
2022/01/06 01:01:38;;;;;;;;;10.00;9.00;;;;;21.96;38.18;101883.44;5052975;28;45367;-71
2022/01/06 01:04:04;;;;;;;;;10.50;10.00;;;;;21.95;37.68;101871.19;5055662;28;46057;-70
2022/01/06 01:06:29;;;;;;;;;8.00;8.00;;;;;21.95;38.06;101868.53;5033380;28;45307;-71
2022/01/06 01:08:54;;;;;;;;;7.25;7.25;;;;;21.95;37.75;101865.06;5045969;28;45472;-71
2022/01/06 01:11:20;;;;;;;;;8.50;8.50;;;;;21.95;38.06;101871.19;5033346;28;45331;-71
2022/01/06 01:13:56;;;;;;;;;9.25;6.25;;;;;21.96;38.09;101870.19;5035182;28;47297;-71
2022/01/06 01:16:30;;;;;;;;;7.25;7.00;;;;;21.96;38.22;101869.38;5055129;28;45568;-71
2022/01/06 01:18:57;;;;;;;;;14.25;9.25;;;;;21.96;38.22;101864.06;5040447;28;45293;-72
2022/01/06 01:21:27;;;;;;;;;8.75;6.25;;;;;21.95;37.68;101873.84;5048713;28;45165;-72
2022/01/06 01:23:56;;;;;;;;;9.00;8.25;;;;;21.95;37.86;101873.84;5049429;28;46123;-70
2022/01/06 01:26:23;;;;;;;;;12.50;10.75;;;;;21.92;38.14;101871.50;5031252;28;45511;-72
2022/01/06 01:28:51;;;;;;;;;7.50;7.50;;;;;21.95;37.66;101881.78;5037245;28;45692;-71
2022/01/06 01:33:43;;;;;;;;;10.50;8.25;;;;;21.93;38.23;101870.53;5051282;28;46303;-72
2022/01/06 01:36:09;;;;;;;;;8.75;7.50;;;;;21.94;37.96;101872.16;5051135;28;45492;-72
2022/01/06 01:38:37;;;;;;;;;11.50;10.25;;;;;21.93;37.77;101883.78;5039321;28;45433;-71
2022/01/06 01:41:05;;;;;;;;;9.25;6.00;;;;;21.93;37.74;101885.56;5059826;28;45468;-71
2022/01/06 01:43:32;;;;;;;;;9.75;9.75;;;;;21.93;38.29;101874.97;5037280;28;45413;-71
2022/01/06 01:45:59;;;;;;;;;11.25;9.75;;;;;21.92;37.63;101874.13;5051409;28;45420;-71
2022/01/06 01:48:32;;;;;;;;;9.25;8.25;;;;;21.93;37.92;101886.41;5058239;28;45448;-71
2022/01/06 01:50:58;;;;;;;;;9.75;9.00;;;;;21.87;38.07;101879.06;5053216;27;45541;-71
2022/01/06 01:53:23;;;;;;;;;9.00;8.50;;;;;21.92;37.95;101886.56;5048114;28;45662;-71
2022/01/06 01:55:48;;;;;;;;;12.00;9.50;;;;;21.88;38.05;101880.75;5038307;28;45233;-71
2022/01/06 01:58:15;;;;;;;;;8.50;8.50;;;;;21.87;37.72;101887.03;5051092;28;45423;-72
2022/01/06 02:00:40;;;;;;;;;9.75;9.75;;;;;21.90;37.66;101896.47;5042701;28;45467;-71
2022/01/06 02:03:06;;;;;;;;;9.50;9.00;;;;;21.90;38.17;101894.66;5050929;28;47109;-71
2022/01/06 02:05:32;;;;;;;;;10.25;8.50;;;;;21.91;37.65;101904.25;5048660;28;45595;-71
2022/01/06 02:07:59;;;;;;;;;7.50;7.25;;;;;21.91;37.53;101906.91;5039677;28;45530;-71
2022/01/06 02:10:25;;;;;;;;;11.00;10.50;;;;;21.91;37.74;101916.69;5036419;28;45457;-71
2022/01/06 02:12:53;;;;;;;;;10.00;8.25;;;;;21.91;37.81;101914.84;5051592;28;46347;-71
2022/01/06 02:15:19;;;;;;;;;9.00;9.00;;;;;21.90;37.73;101913.22;5054333;28;45447;-72
2022/01/06 02:17:45;;;;;;;;;10.50;10.00;;;;;21.91;38.01;101914.06;5054567;28;45390;-72
2022/01/06 02:20:13;;;;;;;;;9.25;8.25;;;;;21.89;37.62;101910.69;5047825;28;45742;-71
2022/01/06 02:22:39;;;;;;;;;12.25;11.00;;;;;21.90;37.58;101918.50;5035657;28;46577;-71
2022/01/06 02:25:29;;;;;;;;;12.25;10.50;;;;;21.91;37.96;101922.00;5054149;28;45395;-72
2022/01/06 02:27:55;;;;;;;;;12.00;10.00;;;;;21.85;37.92;101913.66;5050952;28;45290;-71
2022/01/06 02:30:24;;;;;;;;;10.25;10.25;;;;;21.91;37.37;101924.66;5052102;28;48035;-72
2022/01/06 02:32:50;;;;;;;;;11.00;11.00;;;;;21.90;38.09;101928.28;5052987;28;46357;-72
2022/01/06 02:35:19;;;;;;;;;11.00;10.00;;;;;21.90;37.78;101922.97;5052628;28;45504;-71
2022/01/06 02:37:44;;;;;;;;;11.75;9.25;;;;;21.81;37.49;101912.28;5052158;28;45401;-71
2022/01/06 02:40:14;;;;;;;;;9.50;9.50;;;;;21.89;37.52;101927.44;5036414;28;45299;-71
2022/01/06 02:42:45;;;;;;;;;7.00;7.00;;;;;21.90;37.68;101933.56;5062465;28;46034;-71
2022/01/06 02:45:11;;;;;;;;;10.25;10.25;;;;;21.90;37.59;101934.41;5050191;28;45370;-71
2022/01/06 02:47:37;;;;;;;;;12.00;9.00;;;;;21.91;37.59;101940.53;5047271;28;45433;-71
2022/01/06 02:50:05;;;;;;;;;9.00;9.00;;;;;21.91;37.61;101929.94;5039458;28;45509;-71
2022/01/06 02:52:31;;;;;;;;;9.25;8.50;;;;;21.91;37.44;101927.31;5056731;28;47331;-71
2022/01/06 02:54:56;;;;;;;;;12.00;11.00;;;;;21.90;37.18;101917.66;5051781;28;45438;-71
2022/01/06 02:57:21;;;;;;;;;12.25;9.75;;;;;21.90;37.38;101926.47;5051599;28;45370;-71
2022/01/06 02:59:47;;;;;;;;;13.50;10.50;;;;;21.74;37.22;101895.31;5048695;28;45493;-71
2022/01/06 03:02:12;;;;;;;;;9.25;8.75;;;;;21.90;37.46;101920.31;5045993;28;46174;-71
2022/01/06 03:04:38;;;;;;;;;10.50;7.50;;;;;21.89;37.28;101932.72;5054759;28;45419;-71
2022/01/06 03:07:03;;;;;;;;;10.00;9.00;;;;;21.90;37.55;101929.09;5052915;28;45931;-71
2022/01/06 03:09:37;;;;;;;;;13.00;9.75;;;;;21.90;37.32;101920.31;5043062;28;45357;-71
2022/01/06 03:12:19;;;;;;;;;10.25;8.50;;;;;21.81;37.68;101917.56;5042925;28;47230;-71
2022/01/06 03:14:45;;;;;;;;;9.50;8.75;;;;;21.78;37.38;101904.63;5046793;28;45618;-71
2022/01/06 03:17:10;;;;;;;;;5.75;3.75;;;;;21.89;37.69;101929.25;5044304;28;45465;-71
2022/01/06 03:19:36;;;;;;;;;10.00;10.00;;;;;21.79;37.30;101913.41;5055871;28;45537;-71
2022/01/06 03:22:01;;;;;;;;;15.25;9.75;;;;;21.78;37.27;101911.75;5058275;28;45410;-71
2022/01/06 03:24:26;;;;;;;;;10.00;8.50;;;;;21.87;37.68;101926.75;5051888;28;47000;-71
2022/01/06 03:26:52;;;;;;;;;8.00;8.00;;;;;21.88;37.54;101928.44;5050556;28;45482;-71
2022/01/06 03:29:17;;;;;;;;;11.50;9.25;;;;;21.87;37.58;101932.06;5042663;28;45479;-71
2022/01/06 03:31:42;;;;;;;;;8.25;8.00;;;;;21.84;37.64;101935.81;5039814;28;47038;-71
2022/01/06 03:34:08;;;;;;;;;10.75;8.00;;;;;21.86;37.17;101930.34;5056102;28;45387;-71
2022/01/06 03:36:34;;;;;;;;;10.50;9.50;;;;;21.77;37.62;101912.72;5055843;28;45424;-71
2022/01/06 03:38:59;;;;;;;;;13.00;8.25;;;;;21.86;37.35;101935.66;5051466;28;45447;-71
2022/01/06 03:41:24;;;;;;;;;10.75;8.00;;;;;21.86;37.53;101930.34;5046523;28;45446;-71
2022/01/06 03:43:50;;;;;;;;;12.75;9.75;;;;;21.87;37.52;101934.72;5023294;28;45486;-71
2022/01/06 03:46:15;;;;;;;;;9.75;8.50;;;;;21.85;37.51;101929.53;5053317;28;45212;-71
2022/01/06 03:48:40;;;;;;;;;9.25;9.25;;;;;21.78;37.51;101911.75;5041966;28;45346;-71
2022/01/06 03:51:06;;;;;;;;;11.00;9.25;;;;;21.85;37.41;101921.59;5031440;28;47505;-71
2022/01/06 03:53:31;;;;;;;;;10.25;9.00;;;;;21.79;37.14;101916.06;5050488;28;45334;-70
2022/01/06 03:55:56;;;;;;;;;9.00;8.50;;;;;21.85;37.20;101921.59;5052163;28;45259;-71
2022/01/06 03:58:22;;;;;;;;;10.25;9.25;;;;;21.85;37.16;101926.06;5053611;28;45175;-71
2022/01/06 04:00:47;;;;;;;;;11.00;9.25;;;;;21.85;37.20;101923.41;5041794;28;45343;-71
2022/01/06 04:03:14;;;;;;;;;9.00;9.00;;;;;21.80;37.58;101915.09;5053563;28;45728;-70
2022/01/06 04:05:39;;;;;;;;;9.50;8.75;;;;;21.85;37.57;101923.41;5045858;28;45568;-71
2022/01/06 04:08:05;;;;;;;;;11.00;10.00;;;;;21.82;37.29;101913.94;5041975;28;45477;-71
2022/01/06 04:10:30;;;;;;;;;10.00;10.00;;;;;21.84;37.43;101922.56;5048259;28;45964;-71
2022/01/06 04:12:56;;;;;;;;;8.25;8.25;;;;;21.77;37.12;101910.91;5052843;28;45362;-72
2022/01/06 04:15:26;;;;;;;;;11.00;10.00;;;;;21.85;36.95;101912.81;5050383;28;45358;-71
2022/01/06 04:17:51;;;;;;;;;10.00;10.00;;;;;21.78;37.43;101909.91;5043613;28;45409;-71
2022/01/06 04:20:17;;;;;;;;;9.50;9.25;;;;;21.85;37.41;101923.41;5040448;28;47193;-71
2022/01/06 04:22:43;;;;;;;;;10.25;9.25;;;;;21.84;37.00;101927.88;5052739;28;45804;-71
2022/01/06 04:25:08;;;;;;;;;9.50;9.50;;;;;21.85;37.33;101928.69;5040132;28;45363;-71
2022/01/06 04:27:34;;;;;;;;;12.50;11.00;;;;;21.80;37.21;101910.63;5051749;28;45648;-71
2022/01/06 04:30:00;;;;;;;;;7.50;7.50;;;;;21.84;37.55;101927.88;5043312;28;46832;-71
2022/01/06 04:32:25;;;;;;;;;10.75;9.25;;;;;21.84;36.72;101921.72;5043487;28;45497;-71
2022/01/06 04:34:50;;;;;;;;;11.00;10.75;;;;;21.84;36.85;101933.16;5039232;28;45645;-71
2022/01/06 04:37:16;;;;;;;;;11.25;9.00;;;;;21.79;37.26;101922.19;5056201;28;45428;-71
2022/01/06 04:39:41;;;;;;;;;8.75;8.50;;;;;21.85;36.87;101936.66;5052298;28;45369;-71
2022/01/06 04:42:06;;;;;;;;;10.50;7.25;;;;;21.76;36.99;101916.34;5041329;28;45497;-70
2022/01/06 04:44:32;;;;;;;;;10.50;9.00;;;;;21.86;37.38;101940.94;5045894;28;45504;-71
2022/01/06 04:46:57;;;;;;;;;11.00;10.00;;;;;21.74;37.29;101920.00;5063894;27;45417;-71
2022/01/06 04:49:23;;;;;;;;;10.75;9.75;;;;;21.85;36.85;101945.44;5037891;28;45537;-71
2022/01/06 04:51:49;;;;;;;;;10.00;8.25;;;;;21.84;37.44;101942.91;5035988;28;45465;-70
2022/01/06 04:54:15;;;;;;;;;8.75;8.75;;;;;21.85;37.31;101944.59;5051920;28;45469;-71
2022/01/06 04:56:40;;;;;;;;;11.25;11.00;;;;;21.81;37.32;101941.41;5049355;28;45411;-71
2022/01/06 04:59:08;;;;;;;;;12.75;9.25;;;;;21.78;37.06;101935.59;5052708;28;46854;-71
2022/01/06 05:01:35;;;;;;;;;11.25;9.25;;;;;21.73;37.57;101931.56;5041210;28;45603;-71
2022/01/06 05:04:01;;;;;;;;;9.00;8.50;;;;;21.83;36.64;101954.53;5040507;28;45409;-70
2022/01/06 05:06:26;;;;;;;;;10.25;9.75;;;;;21.83;36.97;101955.34;5055379;28;45500;-71
2022/01/06 05:08:52;;;;;;;;;10.50;8.75;;;;;21.83;36.87;101954.53;5054067;28;46045;-71
2022/01/06 05:11:17;;;;;;;;;12.00;10.25;;;;;21.83;37.18;101962.47;5054301;28;45426;-70
2022/01/06 05:13:43;;;;;;;;;10.25;9.00;;;;;21.82;36.86;101958.97;5067586;28;45809;-71
2022/01/06 05:16:08;;;;;;;;;10.50;9.00;;;;;21.82;37.25;101974.88;5034302;28;45267;-71
2022/01/06 05:18:35;;;;;;;;;10.50;8.25;;;;;21.82;37.07;101974.88;5038316;28;45271;-71
2022/01/06 05:21:01;;;;;;;;;12.00;9.00;;;;;21.81;37.29;101975.00;5045207;28;45240;-71
2022/01/06 05:23:26;;;;;;;;;8.00;8.00;;;;;21.82;37.10;101972.22;5049298;28;45368;-70
2022/01/06 05:25:52;;;;;;;;;13.00;9.50;;;;;21.82;36.98;101974.03;5052133;28;45613;-71
2022/01/06 05:28:17;;;;;;;;;10.50;10.00;;;;;21.82;37.24;101977.53;5038185;28;45897;-71
2022/01/06 05:30:42;;;;;;;;;10.00;9.75;;;;;21.82;36.90;101979.34;5054472;28;45318;-71
2022/01/06 05:33:10;;;;;;;;;10.50;9.50;;;;;21.75;36.90;101968.53;5051448;28;45454;-71
2022/01/06 05:35:35;;;;;;;;;12.75;11.00;;;;;21.81;36.81;101975.84;5048935;28;45567;-71
2022/01/06 05:38:00;;;;;;;;;9.00;9.00;;;;;21.81;37.21;101981.16;5058116;28;46151;-71
2022/01/06 05:40:26;;;;;;;;;10.25;7.50;;;;;21.80;37.10;101987.44;5056980;28;45713;-70
2022/01/06 05:42:51;;;;;;;;;10.25;9.00;;;;;21.79;36.96;101988.41;5050880;28;45482;-71
2022/01/06 05:45:18;;;;;;;;;11.75;9.75;;;;;21.77;36.59;101979.78;5049185;28;45591;-71
2022/01/06 05:47:43;;;;;;;;;8.75;7.75;;;;;21.80;36.74;101984.81;5048232;28;45329;-71
2022/01/06 05:50:09;;;;;;;;;8.75;8.75;;;;;21.72;36.93;101971.47;5049447;28;45429;-71
2022/01/06 05:52:35;;;;;;;;;10.50;9.00;;;;;21.80;36.97;101976.84;5042549;28;45333;-71
2022/01/06 05:55:01;;;;;;;;;8.50;8.50;;;;;21.79;37.28;101975.19;5039144;28;45512;-70
2022/01/06 05:57:27;;;;;;;;;11.50;8.75;;;;;21.81;36.78;101981.16;5043945;28;46366;-71
2022/01/06 05:59:52;;;;;;;;;9.25;8.50;;;;;21.80;36.75;101987.44;5048841;28;45671;-72
2022/01/06 06:02:17;;;;;;;;;10.25;9.00;;;;;21.78;36.70;101978.00;5048924;28;45504;-71
2022/01/06 06:04:43;;;;;;;;;9.00;9.00;;;;;21.80;37.04;101978.66;5037180;28;45584;-72
2022/01/06 06:07:08;;;;;;;;;11.75;11.75;;;;;21.69;37.06;101961.16;5035548;28;46164;-71
2022/01/06 06:09:34;;;;;;;;;8.50;8.50;;;;;21.61;37.17;101948.69;5047330;28;45314;-72
2022/01/06 06:11:59;;;;;;;;;12.75;11.00;;;;;21.80;36.75;101978.66;5043982;28;48832;-70
2022/01/06 06:14:24;;;;;;;;;9.00;8.00;;;;;21.80;36.89;101979.50;5019666;28;45600;-72
2022/01/06 06:16:49;;;;;;;;;9.75;8.75;;;;;21.80;36.87;101971.56;5038961;28;46010;-72
2022/01/06 06:19:15;;;;;;;;;10.00;9.00;;;;;21.71;36.80;101970.63;5036483;28;45495;-71
2022/01/06 06:21:40;;;;;;;;;10.75;9.50;;;;;21.70;36.27;101968.94;5050395;28;45548;-71
2022/01/06 06:24:06;;;;;;;;;11.75;7.75;;;;;21.79;36.41;101976.97;5042930;28;45568;-71
2022/01/06 06:26:31;;;;;;;;;9.25;8.25;;;;;21.67;36.71;101960.50;5041239;28;47081;-71
2022/01/06 06:28:57;;;;;;;;;10.25;9.50;;;;;21.71;36.40;101961.84;5050588;28;45442;-71
2022/01/06 06:31:22;;;;;;;;;10.50;10.50;;;;;21.81;37.07;101980.31;5036440;28;45500;-71
2022/01/06 06:33:47;;;;;;;;;8.75;8.75;;;;;21.81;36.88;101972.34;5053517;28;45378;-70
2022/01/06 06:36:13;;;;;;;;;8.25;7.25;;;;;21.80;36.85;101974.19;5048100;28;45471;-71
2022/01/06 06:38:38;;;;;;;;;8.00;7.50;;;;;21.81;36.41;101981.16;5048731;28;45287;-72
2022/01/06 06:41:04;;;;;;;;;10.00;8.00;;;;;21.79;36.41;101983.13;5052015;28;45539;-74
2022/01/06 06:43:29;;;;;;;;;10.75;8.25;;;;;21.81;36.90;101985.59;5036173;28;45304;-74
2022/01/06 06:45:54;;;;;;;;;9.00;7.00;;;;;21.80;36.88;101978.66;5054954;28;47128;-74
2022/01/06 06:48:22;;;;;;;;;13.25;10.00;;;;;21.75;36.88;101979.13;5042602;28;45486;-74
2022/01/06 06:50:47;;;;;;;;;14.50;9.75;;;;;21.79;36.77;101985.78;5042591;28;45521;-71
2022/01/06 06:53:13;;;;;;;;;11.50;10.50;;;;;21.79;36.51;101988.41;5046699;28;45411;-72
2022/01/06 06:55:38;;;;;;;;;10.00;9.00;;;;;21.72;36.63;101979.41;5042973;28;46058;-70
2022/01/06 06:58:04;;;;;;;;;9.25;8.75;;;;;21.70;37.01;101970.78;5050535;28;45386;-72
2022/01/06 07:00:29;;;;;;;;;9.00;9.00;;;;;21.78;37.27;101986.75;5049445;28;45436;-71
2022/01/06 07:02:55;;;;;;;;;8.00;7.25;;;;;21.80;37.11;101981.31;5052088;28;45547;-71
2022/01/06 07:05:20;;;;;;;;;9.50;9.00;;;;;21.79;36.95;101988.41;5050752;28;46070;-70
2022/01/06 07:07:46;;;;;;;;;11.00;9.75;;;;;21.78;37.06;101989.38;5050413;28;46487;-70
2022/01/06 07:10:12;;;;;;;;;9.00;6.75;;;;;21.79;37.57;101993.72;5049892;28;45375;-71
2022/01/06 07:12:42;;;;;;;;;10.50;9.75;;;;;21.73;36.85;101989.84;5051595;28;45599;-71
2022/01/06 07:15:09;;;;;;;;;11.00;7.25;;;;;21.80;37.08;101999.84;5045820;28;45304;-71
2022/01/06 07:17:35;;;;;;;;;9.00;9.00;;;;;21.80;37.23;101999.84;5040786;28;45620;-70
2022/01/06 07:20:00;;;;;;;;;9.50;8.50;;;;;21.80;37.21;102005.16;5037089;28;45545;-72
2022/01/06 07:22:26;;;;;;;;;13.75;8.75;;;;;21.80;36.98;102007.81;5051845;28;45548;-72
2022/01/06 07:24:51;;;;;;;;;9.75;7.75;;;;;21.80;37.29;102015.75;5049895;28;45332;-71
2022/01/06 07:27:16;;;;;;;;;10.50;10.50;;;;;21.79;37.49;102009.63;5040569;28;45514;-72
2022/01/06 07:29:42;;;;;;;;;10.00;9.25;;;;;21.79;37.12;102009.63;5039188;28;45514;-72
2022/01/06 07:32:07;;;;;;;;;10.00;10.00;;;;;21.66;36.93;101987.94;5039100;28;45485;-71
2022/01/06 07:34:33;;;;;;;;;12.75;10.00;;;;;21.78;37.26;102013.22;5052938;28;45402;-72
2022/01/06 07:36:59;;;;;;;;;10.00;10.00;;;;;21.79;36.97;102008.78;5057771;28;45476;-72
2022/01/06 07:39:25;;;;;;;;;11.25;9.50;;;;;21.68;37.52;101993.94;5038875;28;45296;-72
2022/01/06 07:41:51;;;;;;;;;8.00;8.00;;;;;21.78;37.01;102012.44;5039875;28;45310;-71
2022/01/06 07:44:16;;;;;;;;;8.75;8.25;;;;;21.79;37.46;102019.38;5038627;28;45500;-72
2022/01/06 07:46:43;;;;;;;;;12.00;9.50;;;;;21.79;37.50;102014.91;5053970;28;45410;-72
2022/01/06 07:49:08;;;;;;;;;8.25;8.00;;;;;21.78;37.23;102017.72;5053270;28;45474;-72
2022/01/06 07:51:34;;;;;;;;;7.25;6.75;;;;;21.79;37.03;102024.66;5051871;28;45605;-72
2022/01/06 07:54:00;;;;;;;;;11.25;11.00;;;;;21.81;37.12;102022.69;5050715;28;46000;-72
2022/01/06 07:56:25;;;;;;;;;9.00;9.00;;;;;21.79;37.45;102022.84;5048039;28;45497;-71
2022/01/06 07:58:50;;;;;;;;;10.00;10.00;;;;;21.80;37.28;102021.06;5040069;28;45489;-72
2022/01/06 08:01:16;;;;;;;;;9.00;9.00;;;;;21.70;37.39;102013.16;5045000;28;45397;-72
2022/01/06 08:03:42;;;;;;;;;9.75;8.25;;;;;21.80;37.38;102039.59;5041694;28;46456;-71
2022/01/06 08:06:08;;;;;;;;;9.75;9.75;;;;;21.80;37.51;102037.78;5050867;28;45528;-71
2022/01/06 08:08:34;;;;;;;;;11.75;11.00;;;;;21.78;37.14;102038.91;5050645;28;45258;-71
2022/01/06 08:10:59;;;;;;;;;14.25;9.25;;;;;21.79;37.23;102045.88;5041690;28;45459;-71
2022/01/06 08:13:24;;;;;;;;;10.25;9.50;;;;;21.80;37.19;102044.88;5049348;28;46191;-72
2022/01/06 08:15:50;;;;;;;;;8.25;6.75;;;;;21.79;36.85;102040.56;5042001;28;45322;-71
2022/01/06 08:18:16;;;;;;;;;10.75;10.75;;;;;21.80;37.04;102055.50;5042204;28;45350;-70
2022/01/06 08:20:41;;;;;;;;;9.00;7.75;;;;;21.80;37.12;102044.88;5042055;28;45430;-71
2022/01/06 08:23:07;;;;;;;;;12.00;9.00;;;;;21.80;37.19;102047.53;5050047;28;46030;-71
2022/01/06 08:25:34;;;;;;;;;9.50;8.00;;;;;21.80;37.12;102055.50;5039018;28;45609;-71
2022/01/06 08:27:59;;;;;;;;;9.25;7.00;;;;;21.79;36.90;102059.09;5052680;28;45437;-71
2022/01/06 08:30:25;;;;;;;;;10.00;9.25;;;;;21.78;37.20;102060.09;5040147;28;45439;-71
2022/01/06 08:32:50;;;;;;;;;9.00;9.00;;;;;21.78;37.21;102063.56;5041495;28;46155;-72
2022/01/06 08:35:16;;;;;;;;;11.00;11.00;;;;;21.77;37.14;102059.28;5041748;28;45348;-70
2022/01/06 08:37:42;;;;;;;;;6.75;6.75;;;;;21.77;37.05;102059.28;5056004;28;45552;-72
2022/01/06 08:40:08;;;;;;;;;9.75;8.50;;;;;21.69;37.12;102045.94;5039572;28;45467;-72
2022/01/06 08:42:33;;;;;;;;;9.00;9.00;;;;;21.67;36.80;102045.25;5041764;28;46299;-71
2022/01/06 08:44:59;;;;;;;;;11.00;8.75;;;;;21.77;37.02;102055.78;5046268;28;45531;-71
2022/01/06 08:47:24;;;;;;;;;11.00;8.75;;;;;21.76;37.22;102062.88;5033558;28;46466;-71
2022/01/06 08:49:50;;;;;;;;;10.50;8.25;;;;;21.67;37.08;102054.03;5053386;28;45386;-71
2022/01/06 08:52:15;;;;;;;;;9.50;9.50;;;;;21.75;36.83;102058.59;5060493;28;46291;-71
2022/01/06 08:54:41;;;;;;;;;10.75;9.00;;;;;21.75;36.83;102069.19;5040972;28;45364;-71
2022/01/06 08:57:06;;;;;;;;;13.25;10.00;;;;;21.76;36.91;102070.84;5041033;28;45310;-72
2022/01/06 08:59:32;;;;;;;;;11.25;9.75;;;;;21.74;37.33;102068.34;5044664;28;45322;-71
2022/01/06 09:01:57;;;;;;;;;10.00;8.75;;;;;21.74;37.07;102071.00;5040794;28;45508;-71
2022/01/06 09:04:22;;;;;;;;;8.75;8.50;;;;;21.74;37.04;102072.81;5054286;28;45378;-71
2022/01/06 09:06:49;;;;;;;;;9.50;8.25;;;;;21.63;37.08;102064.06;5052329;28;45355;-71
2022/01/06 09:09:15;;;;;;;;;10.50;9.00;;;;;21.75;37.24;102079.78;5051119;28;45418;-71
2022/01/06 09:11:42;;;;;;;;;0.50;0.50;;;;;21.74;37.03;102071.00;5049188;28;46244;-71
2022/01/06 09:14:07;;;;;;;;;11.00;9.50;;;;;21.73;37.02;102069.31;5049473;28;45433;-70
2022/01/06 09:16:33;;;;;;;;;10.00;8.75;;;;;21.72;37.09;102070.31;5054168;28;45497;-71
2022/01/06 09:18:58;;;;;;;;;9.00;7.50;;;;;21.74;37.15;102075.44;5041577;28;45395;-72
2022/01/06 09:21:24;;;;;;;;;10.25;8.50;;;;;21.72;37.04;102072.97;5041831;28;45938;-71
2022/01/06 09:23:53;;;;;;;;;11.00;9.75;;;;;21.73;36.67;102068.47;5042410;28;45576;-71
2022/01/06 09:26:19;;;;;;;;;11.00;9.00;;;;;21.73;36.78;102074.63;5041990;28;45733;-71
2022/01/06 09:28:46;;;;;;;;;10.00;10.00;;;;;21.73;36.70;102077.25;5038195;28;45309;-71
2022/01/06 09:31:11;;;;;;;;;13.25;11.75;;;;;21.69;37.06;102073.25;5038740;28;45509;-71
2022/01/06 09:33:36;;;;;;;;;9.00;9.00;;;;;21.73;36.86;102087.84;5051438;28;45296;-70
2022/01/06 09:36:02;;;;;;;;;10.25;7.25;;;;;21.76;36.77;102091.19;5048086;28;45347;-72
2022/01/06 09:38:28;;;;;;;;;10.50;10.25;;;;;21.75;37.13;102090.38;5048730;28;45421;-72
2022/01/06 09:40:53;;;;;;;;;11.25;9.00;;;;;21.65;36.82;102071.88;5038754;28;46083;-71
2022/01/06 09:43:26;;;;;;;;;12.00;9.50;;;;;21.76;37.05;102094.69;5039240;28;45437;-72
2022/01/06 09:45:52;;;;;;;;;11.00;10.25;;;;;21.77;36.73;102087.56;5051921;28;45403;-70
2022/01/06 09:48:20;;;;;;;;;11.00;8.75;;;;;21.45;36.89;102040.19;5048812;28;48447;-71
2022/01/06 09:50:45;;;;;;;;;10.50;10.00;;;;;21.71;36.47;102083.69;5049175;28;46096;-71
2022/01/06 09:53:11;;;;;;;;;11.75;10.75;;;;;21.71;36.74;102092.47;5048914;28;45436;-72
2022/01/06 09:55:42;;;;;;;;;13.50;12.00;;;;;21.74;36.47;102089.53;5051883;28;45345;-69
2022/01/06 09:58:07;;;;;;;;;11.00;10.00;;;;;21.74;36.78;102097.47;5047644;28;45837;-72
2022/01/06 10:00:34;;;;;;;;;10.25;9.00;;;;;21.76;36.42;102089.38;5049261;28;46024;-72
2022/01/06 10:03:03;;;;;;;;;12.25;10.00;;;;;21.77;36.30;102090.22;5050604;28;45457;-71
2022/01/06 10:05:41;;;;;;;;;12.00;10.25;;;;;21.77;36.54;102080.47;5049999;28;45516;-72
2022/01/06 10:08:08;;;;;;;;;13.00;9.25;;;;;21.73;36.69;102081.72;5052672;28;45508;-72
2022/01/06 10:10:35;;;;;;;;;15.00;10.75;;;;;21.69;36.88;102072.41;5035944;28;45292;-72
2022/01/06 10:13:06;;;;;;;;;12.25;11.00;;;;;21.73;36.54;102076.41;5039902;28;45353;-72
2022/01/06 10:15:32;;;;;;;;;16.75;11.50;;;;;21.70;36.57;102064.31;5049003;28;45588;-71
2022/01/06 10:17:57;;;;;;;;;14.50;10.50;;;;;21.76;36.67;102073.47;5048510;28;45774;-72
2022/01/06 10:20:26;;;;;;;;;12.50;10.25;;;;;21.72;36.79;102070.31;5048761;28;46044;-72
2022/01/06 10:22:55;;;;;;;;;19.00;12.25;;;;;21.75;36.50;102074.47;5046321;28;45477;-71
2022/01/06 10:25:23;;;;;;;;;14.00;12.00;;;;;21.74;36.55;102070.16;5036714;28;47457;-72
2022/01/06 10:27:49;;;;;;;;;15.25;10.25;;;;;21.73;36.70;102066.66;5046756;28;45491;-71
2022/01/06 10:30:15;;;;;;;;;15.00;12.00;;;;;21.74;36.99;102064.84;5048625;28;46198;-71
2022/01/06 10:32:42;;;;;;;;;15.25;12.00;;;;;21.72;36.76;102067.66;5051063;28;45541;-71
2022/01/06 10:35:09;;;;;;;;;16.00;10.25;;;;;21.74;36.47;102064.84;5048593;28;45350;-71
2022/01/06 10:37:40;;;;;;;;;13.00;11.00;;;;;21.73;36.94;102064.00;5051352;28;45433;-71
2022/01/06 10:40:11;;;;;;;;;12.25;11.00;;;;;21.72;36.41;102067.66;5037438;28;45477;-72
2022/01/06 10:42:39;;;;;;;;;15.50;10.25;;;;;21.72;36.77;102054.41;5050328;28;45400;-71
2022/01/06 10:45:10;;;;;;;;;17.00;13.00;;;;;21.73;36.86;102053.41;5043888;28;45461;-72
2022/01/06 10:47:42;;;;;;;;;15.25;11.00;;;;;21.72;36.78;102046.47;5051381;28;45507;-71
2022/01/06 10:50:14;;;;;;;;;13.25;11.25;;;;;21.66;36.75;102030.31;5052808;28;46198;-71
2022/01/06 10:52:42;;;;;;;;;15.25;14.00;;;;;21.72;36.51;102041.19;5047389;28;45754;-72
2022/01/06 10:55:29;;;;;;;;;17.75;13.50;;;;;21.72;36.40;102035.03;5050717;28;45378;-71
2022/01/06 10:58:00;;;;;;;;;14.50;13.25;;;;;21.70;36.43;102035.16;5039103;28;45635;-71
2022/01/06 11:00:32;;;;;;;;;19.50;14.50;;;;;21.72;36.80;102035.88;5039261;28;46950;-72
2022/01/06 11:03:09;;;;;;;;;21.50;13.25;;;;;21.71;36.48;102036.84;5046720;28;45418;-71
2022/01/06 11:05:36;;;;;;;;;25.25;13.00;;;;;21.63;36.39;102020.88;5048074;28;45476;-72
2022/01/06 11:08:03;;;;;;;;;15.75;13.00;;;;;21.70;36.67;102029.88;5032267;28;45537;-71
2022/01/06 11:10:29;;;;;;;;;21.00;12.25;;;;;21.70;36.77;102027.22;5045032;28;45527;-71
2022/01/06 11:12:55;;;;;;;;;18.25;13.25;;;;;21.68;36.75;102023.91;5049697;28;45386;-71
2022/01/06 11:15:20;;;;;;;;;18.50;14.25;;;;;21.58;36.67;102001.94;5041167;28;45306;-71
2022/01/06 11:17:47;;;;;;;;;21.75;14.75;;;;;21.71;36.35;102023.59;5042660;28;45392;-71
2022/01/06 11:20:14;;;;;;;;;19.75;12.75;;;;;21.71;36.33;102009.53;5042560;28;46440;-70
2022/01/06 11:22:54;;;;;;;;;25.75;14.00;;;;;21.72;36.59;102011.19;5038423;28;45264;-71